sensor_id;sensor_type;location;lat;lon;timestamp;P1;durP1;ratioP1;P2;durP2;ratioP2
62121;SDS011;48108;47.532;19.084;2023-09-18T03:57:17;12.18;;;7.37;;
62121;SDS011;48108;47.532;19.084;2023-09-18T04:00:21;12.10;;;6.55;;
62121;SDS011;48108;47.532;19.084;2023-09-18T04:03:25;9.80;;;6.53;;
62121;SDS011;48108;47.532;19.084;2023-09-18T04:06:35;10.05;;;6.57;;
62121;SDS011;48108;47.532;19.084;2023-09-18T04:09:49;13.73;;;6.70;;
62121;SDS011;48108;47.532;19.084;2023-09-18T04:12:52;10.27;;;6.32;;
62121;SDS011;48108;47.532;19.084;2023-09-18T04:15:55;10.80;;;6.05;;
62121;SDS011;48108;47.532;19.084;2023-09-18T04:19:00;11.55;;;6.82;;
62121;SDS011;48108;47.532;19.084;2023-09-18T04:22:03;8.77;;;5.80;;
62121;SDS011;48108;47.532;19.084;2023-09-18T04:25:06;10.43;;;7.30;;
62121;SDS011;48108;47.532;19.084;2023-09-18T04:28:10;11.02;;;7.05;;
62121;SDS011;48108;47.532;19.084;2023-09-18T04:31:13;9.75;;;6.35;;
62121;SDS011;48108;47.532;19.084;2023-09-18T04:34:16;11.52;;;7.55;;
62121;SDS011;48108;47.532;19.084;2023-09-18T04:37:19;12.27;;;6.00;;
62121;SDS011;48108;47.532;19.084;2023-09-18T04:40:22;10.38;;;7.03;;
62121;SDS011;48108;47.532;19.084;2023-09-18T04:43:26;12.43;;;6.68;;
62121;SDS011;48108;47.532;19.084;2023-09-18T04:46:33;12.55;;;6.93;;
62121;SDS011;48108;47.532;19.084;2023-09-18T04:49:38;12.10;;;7.72;;
62121;SDS011;48108;47.532;19.084;2023-09-18T04:52:41;10.77;;;7.10;;
62121;SDS011;48108;47.532;19.084;2023-09-18T04:55:45;14.05;;;7.43;;
62121;SDS011;48108;47.532;19.084;2023-09-18T04:58:52;12.10;;;7.35;;
62121;SDS011;48108;47.532;19.084;2023-09-18T05:01:55;11.18;;;6.47;;
62121;SDS011;48108;47.532;19.084;2023-09-18T05:04:59;11.00;;;6.90;;
62121;SDS011;48108;47.532;19.084;2023-09-18T05:08:03;15.40;;;7.70;;
62121;SDS011;48108;47.532;19.084;2023-09-18T05:11:10;11.38;;;6.70;;
62121;SDS011;48108;47.532;19.084;2023-09-18T05:14:16;12.52;;;6.97;;
62121;SDS011;48108;47.532;19.084;2023-09-18T05:17:19;12.02;;;6.55;;
62121;SDS011;48108;47.532;19.084;2023-09-18T05:20:23;9.73;;;6.47;;
62121;SDS011;48108;47.532;19.084;2023-09-18T05:23:27;12.13;;;7.07;;
62121;SDS011;48108;47.532;19.084;2023-09-18T05:26:30;10.77;;;6.40;;
62121;SDS011;48108;47.532;19.084;2023-09-18T05:29:34;16.33;;;7.60;;
62121;SDS011;48108;47.532;19.084;2023-09-18T05:32:40;11.12;;;7.43;;
62121;SDS011;48108;47.532;19.084;2023-09-18T05:35:45;9.82;;;6.18;;
62121;SDS011;48108;47.532;19.084;2023-09-18T05:38:48;9.35;;;6.68;;
62121;SDS011;48108;47.532;19.084;2023-09-18T05:41:51;9.55;;;6.25;;
62121;SDS011;48108;47.532;19.084;2023-09-18T05:44:54;10.48;;;6.72;;
62121;SDS011;48108;47.532;19.084;2023-09-18T05:47:57;10.88;;;6.72;;
62121;SDS011;48108;47.532;19.084;2023-09-18T05:51:06;9.40;;;6.47;;
62121;SDS011;48108;47.532;19.084;2023-09-18T05:54:10;14.98;;;7.45;;
62121;SDS011;48108;47.532;19.084;2023-09-18T05:57:13;13.35;;;8.00;;
62121;SDS011;48108;47.532;19.084;2023-09-18T06:00:16;11.15;;;7.07;;
62121;SDS011;48108;47.532;19.084;2023-09-18T06:03:20;10.98;;;6.43;;
62121;SDS011;48108;47.532;19.084;2023-09-18T06:06:24;13.80;;;6.95;;
62121;SDS011;48108;47.532;19.084;2023-09-18T06:09:30;12.57;;;7.28;;
62121;SDS011;48108;47.532;19.084;2023-09-18T06:12:33;15.88;;;7.47;;
62121;SDS011;48108;47.532;19.084;2023-09-18T06:15:36;8.88;;;6.25;;
62121;SDS011;48108;47.532;19.084;2023-09-18T06:18:39;9.15;;;6.07;;
62121;SDS011;48108;47.532;19.084;2023-09-18T06:21:43;10.93;;;6.53;;
62121;SDS011;48108;47.532;19.084;2023-09-18T06:24:46;13.15;;;6.35;;
62121;SDS011;48108;47.532;19.084;2023-09-18T06:27:49;12.00;;;6.40;;
62121;SDS011;48108;47.532;19.084;2023-09-18T06:30:52;11.63;;;6.70;;
62121;SDS011;48108;47.532;19.084;2023-09-18T06:33:57;8.43;;;6.53;;
62121;SDS011;48108;47.532;19.084;2023-09-18T06:37:00;11.43;;;6.55;;
62121;SDS011;48108;47.532;19.084;2023-09-18T06:40:06;11.82;;;6.82;;
62121;SDS011;48108;47.532;19.084;2023-09-18T06:43:09;10.05;;;6.18;;
62121;SDS011;48108;47.532;19.084;2023-09-18T06:46:13;11.35;;;6.70;;
62121;SDS011;48108;47.532;19.084;2023-09-18T06:49:15;10.73;;;6.90;;
62121;SDS011;48108;47.532;19.084;2023-09-18T06:52:18;9.77;;;7.40;;
62121;SDS011;48108;47.532;19.084;2023-09-18T06:55:21;10.95;;;7.12;;
62121;SDS011;48108;47.532;19.084;2023-09-18T06:58:25;10.40;;;7.37;;
62121;SDS011;48108;47.532;19.084;2023-09-18T07:01:27;11.25;;;7.07;;
62121;SDS011;48108;47.532;19.084;2023-09-18T07:04:31;10.13;;;7.07;;
62121;SDS011;48108;47.532;19.084;2023-09-18T07:07:34;10.65;;;6.82;;
62121;SDS011;48108;47.532;19.084;2023-09-18T07:10:37;9.50;;;6.43;;
62121;SDS011;48108;47.532;19.084;2023-09-18T07:13:41;10.68;;;6.95;;
62121;SDS011;48108;47.532;19.084;2023-09-18T07:16:46;10.02;;;6.95;;
62121;SDS011;48108;47.532;19.084;2023-09-18T07:19:48;10.10;;;6.57;;
62121;SDS011;48108;47.532;19.084;2023-09-18T07:22:52;10.38;;;6.65;;
62121;SDS011;48108;47.532;19.084;2023-09-18T07:25:55;12.10;;;6.90;;
62121;SDS011;48108;47.532;19.084;2023-09-18T07:28:58;10.77;;;6.45;;
62121;SDS011;48108;47.532;19.084;2023-09-18T07:32:04;9.93;;;6.18;;
62121;SDS011;48108;47.532;19.084;2023-09-18T07:35:07;8.57;;;5.87;;
62121;SDS011;48108;47.532;19.084;2023-09-18T07:38:11;10.40;;;6.35;;
62121;SDS011;48108;47.532;19.084;2023-09-18T07:41:15;13.20;;;6.80;;
62121;SDS011;48108;47.532;19.084;2023-09-18T07:44:18;9.52;;;6.40;;
62121;SDS011;48108;47.532;19.084;2023-09-18T07:47:23;9.38;;;6.07;;
62121;SDS011;48108;47.532;19.084;2023-09-18T07:50:26;10.20;;;6.37;;
62121;SDS011;48108;47.532;19.084;2023-09-18T07:53:29;10.55;;;6.62;;
62121;SDS011;48108;47.532;19.084;2023-09-18T07:56:34;8.57;;;5.95;;
62121;SDS011;48108;47.532;19.084;2023-09-18T07:59:39;11.88;;;6.62;;
62121;SDS011;48108;47.532;19.084;2023-09-18T08:02:42;10.63;;;6.18;;
62121;SDS011;48108;47.532;19.084;2023-09-18T08:05:45;9.07;;;6.80;;
62121;SDS011;48108;47.532;19.084;2023-09-18T08:08:50;8.80;;;6.40;;
62121;SDS011;48108;47.532;19.084;2023-09-18T08:11:54;10.77;;;6.07;;
62121;SDS011;48108;47.532;19.084;2023-09-18T08:14:58;10.82;;;6.43;;
62121;SDS011;48108;47.532;19.084;2023-09-18T08:18:01;9.00;;;5.90;;
62121;SDS011;48108;47.532;19.084;2023-09-18T08:21:05;10.30;;;6.37;;
62121;SDS011;48108;47.532;19.084;2023-09-18T08:24:08;12.32;;;6.50;;
62121;SDS011;48108;47.532;19.084;2023-09-18T08:27:13;10.80;;;6.65;;
62121;SDS011;48108;47.532;19.084;2023-09-18T08:30:19;11.43;;;6.23;;
62121;SDS011;48108;47.532;19.084;2023-09-18T08:33:23;8.25;;;5.95;;
62121;SDS011;48108;47.532;19.084;2023-09-18T08:36:26;10.55;;;6.10;;
62121;SDS011;48108;47.532;19.084;2023-09-18T08:39:31;9.73;;;6.30;;
62121;SDS011;48108;47.532;19.084;2023-09-18T08:42:49;10.33;;;5.97;;
62121;SDS011;48108;47.532;19.084;2023-09-18T08:45:55;9.60;;;6.65;;
62121;SDS011;48108;47.532;19.084;2023-09-18T08:52:08;9.50;;;6.50;;
62121;SDS011;48108;47.532;19.084;2023-09-18T08:55:11;11.40;;;6.32;;
62121;SDS011;48108;47.532;19.084;2023-09-18T08:58:15;8.00;;;6.22;;
62121;SDS011;48108;47.532;19.084;2023-09-18T09:01:22;10.45;;;6.82;;
62121;SDS011;48108;47.532;19.084;2023-09-18T09:04:25;7.37;;;5.97;;
62121;SDS011;48108;47.532;19.084;2023-09-18T09:07:29;9.98;;;6.55;;
62121;SDS011;48108;47.532;19.084;2023-09-18T09:10:34;11.07;;;6.15;;
62121;SDS011;48108;47.532;19.084;2023-09-18T09:13:37;10.13;;;6.20;;
62121;SDS011;48108;47.532;19.084;2023-09-18T09:16:48;10.00;;;6.40;;
62121;SDS011;48108;47.532;19.084;2023-09-18T09:19:52;9.02;;;6.28;;
62121;SDS011;48108;47.532;19.084;2023-09-18T09:23:11;9.23;;;6.35;;
62121;SDS011;48108;47.532;19.084;2023-09-18T09:26:15;9.43;;;6.62;;
62121;SDS011;48108;47.532;19.084;2023-09-18T09:29:19;10.35;;;6.25;;
62121;SDS011;48108;47.532;19.084;2023-09-18T09:32:23;12.02;;;6.45;;
62121;SDS011;48108;47.532;19.084;2023-09-18T09:35:28;6.85;;;6.05;;
62121;SDS011;48108;47.532;19.084;2023-09-18T09:38:34;8.63;;;6.05;;
62121;SDS011;48108;47.532;19.084;2023-09-18T09:41:37;8.45;;;6.15;;
62121;SDS011;48108;47.532;19.084;2023-09-18T09:44:40;9.50;;;6.18;;
62121;SDS011;48108;47.532;19.084;2023-09-18T09:47:48;8.40;;;6.22;;
62121;SDS011;48108;47.532;19.084;2023-09-18T09:54:02;8.98;;;6.28;;
62121;SDS011;48108;47.532;19.084;2023-09-18T09:57:06;10.43;;;6.55;;
62121;SDS011;48108;47.532;19.084;2023-09-18T10:00:09;7.30;;;5.60;;
62121;SDS011;48108;47.532;19.084;2023-09-18T10:03:29;7.97;;;6.07;;
62121;SDS011;48108;47.532;19.084;2023-09-18T10:06:36;7.68;;;6.20;;
62121;SDS011;48108;47.532;19.084;2023-09-18T10:09:41;7.45;;;6.20;;
62121;SDS011;48108;47.532;19.084;2023-09-18T10:12:45;6.20;;;5.50;;
62121;SDS011;48108;47.532;19.084;2023-09-18T10:15:51;8.63;;;6.18;;
62121;SDS011;48108;47.532;19.084;2023-09-18T10:19:00;7.47;;;5.85;;
62121;SDS011;48108;47.532;19.084;2023-09-18T10:25:31;7.55;;;5.90;;
62121;SDS011;48108;47.532;19.084;2023-09-18T10:28:34;9.15;;;5.68;;
62121;SDS011;48108;47.532;19.084;2023-09-18T10:31:39;9.05;;;5.78;;
62121;SDS011;48108;47.532;19.084;2023-09-18T10:34:45;8.82;;;6.00;;
62121;SDS011;48108;47.532;19.084;2023-09-18T10:37:50;9.52;;;6.28;;
62121;SDS011;48108;47.532;19.084;2023-09-18T10:40:57;9.73;;;6.12;;
62121;SDS011;48108;47.532;19.084;2023-09-18T10:44:04;8.38;;;5.90;;
62121;SDS011;48108;47.532;19.084;2023-09-18T10:47:08;6.90;;;5.47;;
62121;SDS011;48108;47.532;19.084;2023-09-18T10:50:22;6.62;;;5.97;;
62121;SDS011;48108;47.532;19.084;2023-09-18T10:53:26;9.55;;;5.70;;
62121;SDS011;48108;47.532;19.084;2023-09-18T10:56:30;10.55;;;6.05;;
62121;SDS011;48108;47.532;19.084;2023-09-18T10:59:34;7.50;;;5.68;;
62121;SDS011;48108;47.532;19.084;2023-09-18T11:02:46;8.30;;;5.95;;
62121;SDS011;48108;47.532;19.084;2023-09-18T11:06:01;8.25;;;5.43;;
62121;SDS011;48108;47.532;19.084;2023-09-18T11:09:07;9.95;;;5.85;;
62121;SDS011;48108;47.532;19.084;2023-09-18T11:12:14;8.15;;;5.75;;
62121;SDS011;48108;47.532;19.084;2023-09-18T11:15:25;9.30;;;6.18;;
62121;SDS011;48108;47.532;19.084;2023-09-18T11:18:33;7.22;;;5.93;;
62121;SDS011;48108;47.532;19.084;2023-09-18T11:21:37;8.88;;;6.00;;
62121;SDS011;48108;47.532;19.084;2023-09-18T11:24:41;7.47;;;5.80;;
62121;SDS011;48108;47.532;19.084;2023-09-18T11:27:52;7.82;;;5.90;;
62121;SDS011;48108;47.532;19.084;2023-09-18T11:30:57;10.10;;;6.35;;
62121;SDS011;48108;47.532;19.084;2023-09-18T11:34:10;10.43;;;6.10;;
62121;SDS011;48108;47.532;19.084;2023-09-18T11:37:20;10.35;;;5.85;;
62121;SDS011;48108;47.532;19.084;2023-09-18T11:40:31;7.15;;;5.47;;
62121;SDS011;48108;47.532;19.084;2023-09-18T11:43:41;8.65;;;5.78;;
62121;SDS011;48108;47.532;19.084;2023-09-18T11:46:47;7.70;;;5.50;;
62121;SDS011;48108;47.532;19.084;2023-09-18T11:49:55;7.78;;;5.78;;
62121;SDS011;48108;47.532;19.084;2023-09-18T11:53:04;8.00;;;5.97;;
62121;SDS011;48108;47.532;19.084;2023-09-18T11:56:10;9.10;;;5.93;;
62121;SDS011;48108;47.532;19.084;2023-09-18T11:59:37;7.53;;;5.70;;
62121;SDS011;48108;47.532;19.084;2023-09-18T12:02:46;10.30;;;5.35;;
62121;SDS011;48108;47.532;19.084;2023-09-18T12:05:55;7.80;;;5.78;;
62121;SDS011;48108;47.532;19.084;2023-09-18T12:08:59;8.48;;;5.57;;
62121;SDS011;48108;47.532;19.084;2023-09-18T12:12:04;7.47;;;5.70;;
62121;SDS011;48108;47.532;19.084;2023-09-18T12:15:12;6.32;;;4.90;;
62121;SDS011;48108;47.532;19.084;2023-09-18T12:18:18;5.97;;;5.05;;
62121;SDS011;48108;47.532;19.084;2023-09-18T12:21:21;10.40;;;5.53;;
62121;SDS011;48108;47.532;19.084;2023-09-18T12:24:25;5.57;;;4.78;;
62121;SDS011;48108;47.532;19.084;2023-09-18T12:27:29;6.25;;;5.05;;
62121;SDS011;48108;47.532;19.084;2023-09-18T12:30:32;6.35;;;5.10;;
62121;SDS011;48108;47.532;19.084;2023-09-18T12:33:37;7.15;;;5.20;;
62121;SDS011;48108;47.532;19.084;2023-09-18T12:36:43;6.85;;;4.95;;
62121;SDS011;48108;47.532;19.084;2023-09-18T12:39:49;6.70;;;4.85;;
62121;SDS011;48108;47.532;19.084;2023-09-18T12:42:57;5.82;;;4.72;;
62121;SDS011;48108;47.532;19.084;2023-09-18T12:49:18;8.00;;;5.30;;
62121;SDS011;48108;47.532;19.084;2023-09-18T12:52:23;7.75;;;5.15;;
62121;SDS011;48108;47.532;19.084;2023-09-18T12:55:26;5.60;;;5.00;;
62121;SDS011;48108;47.532;19.084;2023-09-18T12:58:30;7.30;;;4.95;;
62121;SDS011;48108;47.532;19.084;2023-09-18T13:01:33;7.12;;;4.90;;
62121;SDS011;48108;47.532;19.084;2023-09-18T13:04:37;10.27;;;5.32;;
62121;SDS011;48108;47.532;19.084;2023-09-18T13:07:44;6.68;;;4.90;;
62121;SDS011;48108;47.532;19.084;2023-09-18T13:10:49;5.85;;;5.00;;
62121;SDS011;48108;47.532;19.084;2023-09-18T13:13:59;8.15;;;5.20;;
62121;SDS011;48108;47.532;19.084;2023-09-18T13:17:02;9.40;;;4.85;;
62121;SDS011;48108;47.532;19.084;2023-09-18T13:20:17;7.20;;;4.75;;
62121;SDS011;48108;47.532;19.084;2023-09-18T13:23:34;7.28;;;4.75;;
62121;SDS011;48108;47.532;19.084;2023-09-18T13:26:37;8.25;;;5.43;;
62121;SDS011;48108;47.532;19.084;2023-09-18T13:29:40;8.63;;;4.87;;
62121;SDS011;48108;47.532;19.084;2023-09-18T13:32:43;7.53;;;4.95;;
62121;SDS011;48108;47.532;19.084;2023-09-18T13:35:47;8.45;;;4.80;;
62121;SDS011;48108;47.532;19.084;2023-09-18T13:38:50;10.05;;;5.12;;
62121;SDS011;48108;47.532;19.084;2023-09-18T13:41:53;7.25;;;5.07;;
62121;SDS011;48108;47.532;19.084;2023-09-18T13:44:56;5.20;;;4.53;;
62121;SDS011;48108;47.532;19.084;2023-09-18T13:48:08;8.80;;;4.87;;
62121;SDS011;48108;47.532;19.084;2023-09-18T13:51:12;6.82;;;5.18;;
62121;SDS011;48108;47.532;19.084;2023-09-18T13:54:15;10.63;;;5.05;;
62121;SDS011;48108;47.532;19.084;2023-09-18T13:57:22;7.03;;;4.70;;
62121;SDS011;48108;47.532;19.084;2023-09-18T14:00:25;9.10;;;4.78;;
62121;SDS011;48108;47.532;19.084;2023-09-18T14:03:29;8.27;;;5.62;;
62121;SDS011;48108;47.532;19.084;2023-09-18T14:06:36;8.77;;;5.40;;
62121;SDS011;48108;47.532;19.084;2023-09-18T14:09:39;6.47;;;5.53;;
62121;SDS011;48108;47.532;19.084;2023-09-18T14:12:42;7.80;;;5.37;;
62121;SDS011;48108;47.532;19.084;2023-09-18T14:15:46;9.15;;;5.70;;
62121;SDS011;48108;47.532;19.084;2023-09-18T14:18:53;7.20;;;5.50;;
62121;SDS011;48108;47.532;19.084;2023-09-18T14:21:57;7.25;;;5.50;;
62121;SDS011;48108;47.532;19.084;2023-09-18T14:25:00;8.82;;;5.80;;
62121;SDS011;48108;47.532;19.084;2023-09-18T14:28:07;6.35;;;5.55;;
62121;SDS011;48108;47.532;19.084;2023-09-18T14:31:09;7.93;;;6.07;;
62121;SDS011;48108;47.532;19.084;2023-09-18T14:34:13;7.65;;;5.53;;
62121;SDS011;48108;47.532;19.084;2023-09-18T14:37:16;8.07;;;5.78;;
62121;SDS011;48108;47.532;19.084;2023-09-18T14:40:19;9.38;;;5.45;;
62121;SDS011;48108;47.532;19.084;2023-09-18T14:43:23;14.77;;;5.55;;
62121;SDS011;48108;47.532;19.084;2023-09-18T14:46:26;8.38;;;5.87;;
62121;SDS011;48108;47.532;19.084;2023-09-18T14:49:29;8.65;;;5.40;;
62121;SDS011;48108;47.532;19.084;2023-09-18T14:52:32;6.85;;;5.90;;
62121;SDS011;48108;47.532;19.084;2023-09-18T14:55:35;8.05;;;5.82;;
62121;SDS011;48108;47.532;19.084;2023-09-18T14:58:38;7.65;;;5.60;;
62121;SDS011;48108;47.532;19.084;2023-09-18T15:01:41;7.97;;;5.68;;
62121;SDS011;48108;47.532;19.084;2023-09-18T15:04:46;6.75;;;5.65;;
62121;SDS011;48108;47.532;19.084;2023-09-18T15:07:50;6.57;;;5.75;;
62121;SDS011;48108;47.532;19.084;2023-09-18T15:10:53;7.22;;;5.72;;
62121;SDS011;48108;47.532;19.084;2023-09-18T15:13:56;9.70;;;6.28;;
62121;SDS011;48108;47.532;19.084;2023-09-18T15:16:59;8.35;;;5.43;;
62121;SDS011;48108;47.532;19.084;2023-09-18T15:20:02;7.55;;;6.03;;
62121;SDS011;48108;47.532;19.084;2023-09-18T15:23:06;6.57;;;5.53;;
62121;SDS011;48108;47.532;19.084;2023-09-18T15:26:10;9.18;;;5.60;;
62121;SDS011;48108;47.532;19.084;2023-09-18T15:29:14;6.15;;;5.07;;
62121;SDS011;48108;47.532;19.084;2023-09-18T15:32:18;7.55;;;5.75;;
62121;SDS011;48108;47.532;19.084;2023-09-18T15:35:23;8.80;;;5.95;;
62121;SDS011;48108;47.532;19.084;2023-09-18T15:38:27;7.28;;;5.43;;
62121;SDS011;48108;47.532;19.084;2023-09-18T15:41:30;7.12;;;5.65;;
62121;SDS011;48108;47.532;19.084;2023-09-18T15:44:33;6.93;;;5.50;;
62121;SDS011;48108;47.532;19.084;2023-09-18T15:47:38;9.43;;;5.97;;
62121;SDS011;48108;47.532;19.084;2023-09-18T15:50:42;8.05;;;6.00;;
62121;SDS011;48108;47.532;19.084;2023-09-18T15:53:46;7.20;;;5.85;;
62121;SDS011;48108;47.532;19.084;2023-09-18T15:56:49;7.85;;;5.57;;
